createdAt,value
2019-05-11T00:02:13.063Z,15.47
2019-05-11T00:04:41.605Z,17.70
2019-05-11T00:07:10.247Z,18.83
2019-05-11T00:09:38.702Z,16.83
2019-05-11T00:12:07.314Z,19.10
2019-05-11T00:14:35.758Z,16.77
2019-05-11T00:17:04.179Z,18.90
2019-05-11T00:19:32.669Z,21.73
2019-05-11T00:22:01.134Z,21.13
2019-05-11T00:24:29.929Z,21.83
2019-05-11T00:26:58.614Z,21.30
2019-05-11T00:29:27.105Z,20.40
2019-05-11T00:31:55.595Z,20.63
2019-05-11T00:34:24.021Z,21.90
2019-05-11T00:36:53.353Z,23.67
2019-05-11T00:39:21.876Z,22.97
2019-05-11T00:41:50.358Z,23.67
2019-05-11T00:44:18.780Z,22.97
2019-05-11T00:46:47.259Z,23.50
2019-05-11T00:49:15.669Z,22.60
2019-05-11T00:51:44.098Z,25.77
2019-05-11T00:54:12.556Z,27.30
2019-05-11T00:56:40.987Z,24.60
2019-05-11T00:59:20.876Z,28.17
2019-05-11T01:01:39.588Z,28.33
2019-05-11T01:04:08.031Z,29.40
2019-05-11T01:06:36.621Z,25.47
2019-05-11T01:09:06.676Z,25.70
2019-05-11T01:11:35.243Z,26.80
2019-05-11T01:14:03.683Z,27.17
2019-05-11T01:16:32.140Z,30.57
2019-05-11T01:19:00.613Z,26.83
2019-05-11T01:21:29.036Z,26.40
2019-05-11T01:23:57.472Z,28.40
2019-05-11T01:26:25.995Z,26.50
2019-05-11T01:28:54.418Z,26.93
2019-05-11T01:31:22.880Z,24.80
2019-05-11T01:33:51.321Z,26.37
2019-05-11T01:36:19.908Z,26.73
2019-05-11T01:38:48.491Z,23.73
2019-05-11T01:41:17.015Z,25.33
2019-05-11T01:43:45.458Z,26.00
2019-05-11T01:46:13.893Z,22.47
2019-05-11T01:48:42.325Z,23.07
2019-05-11T01:51:10.778Z,26.27
2019-05-11T01:53:39.199Z,25.37
2019-05-11T01:56:07.633Z,21.87
2019-05-11T01:58:36.048Z,25.57
2019-05-11T02:01:04.733Z,23.57
2019-05-11T02:03:33.177Z,22.33
2019-05-11T02:06:01.762Z,25.17
2019-05-11T02:08:31.161Z,23.10
2019-05-11T02:11:14.926Z,23.60
2019-05-11T02:13:29.799Z,23.03
2019-05-11T02:15:58.221Z,23.73
2019-05-11T02:18:26.661Z,22.73
2019-05-11T02:20:55.079Z,25.67
2019-05-11T02:23:23.526Z,23.83
2019-05-11T02:25:51.993Z,24.13
2019-05-11T02:28:20.458Z,22.67
2019-05-11T02:30:48.957Z,25.87
2019-05-11T02:33:17.431Z,23.77
2019-05-11T02:35:45.876Z,23.47
2019-05-11T02:38:14.319Z,23.30
2019-05-11T02:40:42.877Z,30.23
2019-05-11T02:43:11.339Z,24.70
2019-05-11T02:45:41.951Z,25.03
2019-05-11T02:48:10.979Z,25.97
2019-05-11T02:50:39.725Z,27.47
2019-05-11T02:53:09.209Z,28.40
2019-05-11T02:55:37.916Z,25.40
2019-05-11T02:58:07.079Z,27.00
2019-05-11T03:00:43.517Z,28.07
2019-05-11T03:03:12.005Z,27.07
2019-05-11T03:05:40.497Z,28.03
2019-05-11T03:08:09.041Z,27.47
2019-05-11T03:10:37.473Z,26.87
2019-05-11T03:13:05.931Z,26.43
2019-05-11T03:15:34.630Z,26.60
2019-05-11T03:18:03.086Z,23.30
2019-05-11T03:20:31.567Z,28.80
2019-05-11T03:23:00.034Z,23.27
2019-05-11T03:25:28.474Z,21.60
2019-05-11T03:27:57.078Z,22.13
2019-05-11T03:30:25.616Z,19.53
2019-05-11T03:32:54.093Z,19.03
2019-05-11T03:35:22.616Z,22.70
2019-05-11T03:37:51.111Z,22.10
2019-05-11T03:40:19.544Z,20.60
2019-05-11T03:42:47.965Z,22.07
2019-05-11T03:45:17.225Z,27.00
2019-05-11T03:47:45.665Z,25.83
2019-05-11T03:50:14.449Z,25.13
2019-05-11T03:52:42.902Z,25.17
2019-05-11T03:55:11.729Z,25.80
2019-05-11T03:57:40.176Z,23.87
2019-05-11T04:00:09.556Z,22.23
2019-05-11T04:02:38.065Z,24.73
2019-05-11T04:05:06.569Z,23.10
2019-05-11T04:07:35.055Z,21.57
2019-05-11T04:10:05.097Z,21.23
2019-05-11T04:12:35.439Z,21.00
2019-05-11T04:15:07.606Z,22.00
2019-05-11T04:17:36.237Z,22.70
2019-05-11T04:20:06.513Z,23.93
2019-05-11T04:22:34.955Z,22.23
2019-05-11T04:25:04.078Z,22.50
2019-05-11T04:27:35.493Z,23.50
2019-05-11T04:30:06.282Z,23.33
2019-05-11T04:32:34.713Z,23.73
2019-05-11T04:35:03.537Z,21.63
2019-05-11T04:37:31.980Z,23.10
2019-05-11T04:40:00.456Z,22.03
2019-05-11T04:42:29.021Z,21.33
2019-05-11T04:44:57.510Z,23.07
2019-05-11T04:47:26.121Z,21.17
2019-05-11T04:49:54.555Z,21.13
2019-05-11T04:52:23.001Z,23.10
2019-05-11T04:54:54.157Z,20.50
2019-05-11T04:57:22.585Z,19.70
2019-05-11T04:59:51.017Z,18.83
2019-05-11T05:02:19.526Z,18.20
2019-05-11T05:04:48.003Z,18.23
2019-05-11T05:07:16.772Z,18.23
2019-05-11T05:09:45.351Z,17.73
2019-05-11T05:12:15.502Z,16.73
2019-05-11T05:14:44.162Z,16.80
2019-05-11T05:17:12.576Z,16.00
2019-05-11T05:19:41.043Z,17.83
2019-05-11T05:22:09.456Z,15.33
2019-05-11T05:24:37.901Z,15.50
2019-05-11T05:27:06.341Z,15.70
2019-05-11T05:29:34.796Z,16.13
2019-05-11T05:32:03.301Z,15.60
2019-05-11T05:34:31.789Z,16.07
2019-05-11T05:37:00.348Z,16.03
2019-05-11T05:39:28.877Z,18.60
2019-05-11T05:41:57.742Z,14.37
2019-05-11T05:44:27.893Z,16.67
2019-05-11T05:46:56.720Z,16.23
2019-05-11T05:49:25.154Z,16.93
2019-05-11T05:51:53.606Z,19.30
2019-05-11T05:54:22.236Z,19.13
2019-05-11T05:56:50.743Z,20.33
2019-05-11T05:59:19.179Z,19.13
2019-05-11T06:01:47.699Z,20.60
2019-05-11T06:04:16.147Z,22.77
2019-05-11T06:06:44.577Z,19.77
2019-05-11T06:09:13.212Z,22.77
2019-05-11T06:11:41.649Z,23.23
2019-05-11T06:14:10.072Z,23.90
2019-05-11T06:16:38.627Z,21.20
2019-05-11T06:19:07.036Z,25.30
2019-05-11T06:21:35.479Z,24.40
2019-05-11T06:24:06.675Z,23.40
2019-05-11T06:26:34.400Z,21.47
2019-05-11T06:29:02.850Z,23.33
2019-05-11T06:31:32.912Z,21.40
2019-05-11T06:34:01.517Z,22.77
2019-05-11T06:36:29.926Z,23.10
2019-05-11T06:38:58.442Z,20.87
2019-05-11T06:41:26.996Z,21.67
2019-05-11T06:44:01.771Z,22.13
2019-05-11T06:46:25.656Z,22.03
2019-05-11T06:48:54.102Z,21.63
2019-05-11T06:51:22.548Z,21.47
2019-05-11T06:53:50.956Z,24.67
2019-05-11T06:56:19.391Z,20.20
2019-05-11T06:58:47.826Z,21.20
2019-05-11T07:01:16.256Z,19.80
2019-05-11T07:03:44.786Z,18.03
2019-05-11T07:06:13.247Z,19.40
2019-05-11T07:08:41.736Z,17.30
2019-05-11T07:11:10.464Z,15.93
2019-05-11T07:13:38.948Z,17.40
2019-05-11T07:16:07.432Z,16.57
2019-05-11T07:18:35.859Z,17.70
2019-05-11T07:21:04.337Z,16.00
2019-05-11T07:23:32.791Z,16.67
2019-05-11T07:26:01.246Z,14.90
2019-05-11T07:28:29.769Z,14.67
2019-05-11T07:30:58.213Z,15.93
2019-05-11T07:33:28.687Z,16.40
2019-05-11T07:35:58.235Z,15.97
2019-05-11T07:38:27.857Z,13.53
2019-05-11T07:40:58.210Z,13.57
2019-05-11T07:43:32.601Z,14.23
2019-05-11T07:46:01.045Z,14.30
2019-05-11T07:48:29.465Z,13.97
2019-05-11T07:50:58.540Z,10.67
2019-05-11T07:53:27.891Z,11.80
2019-05-11T07:55:57.707Z,11.20
2019-05-11T07:58:28.526Z,9.90
2019-05-11T08:00:58.169Z,7.77
2019-05-11T08:03:28.326Z,8.50
2019-05-11T08:06:02.652Z,8.97
2019-05-11T08:08:32.685Z,8.87
2019-05-11T08:11:07.935Z,7.20
2019-05-11T08:13:43.282Z,7.63
2019-05-11T08:16:15.337Z,6.40
2019-05-11T08:18:48.643Z,7.40
2019-05-11T08:21:28.603Z,8.87
2019-05-11T08:23:58.892Z,9.27
2019-05-11T08:26:31.707Z,9.00
2019-05-11T08:29:04.517Z,10.60
2019-05-11T08:31:32.946Z,11.83
2019-05-11T08:34:01.485Z,9.47
2019-05-11T08:36:30.033Z,8.93
2019-05-11T08:38:58.785Z,10.03
2019-05-11T08:41:28.062Z,10.90
2019-05-11T08:44:02.726Z,11.00
2019-05-11T08:46:38.578Z,10.50
2019-05-11T08:49:08.689Z,12.27
2019-05-11T08:51:38.598Z,11.20
2019-05-11T08:54:09.014Z,11.03
2019-05-11T08:56:38.260Z,12.07
2019-05-11T08:59:08.081Z,11.87
2019-05-11T09:01:39.287Z,12.40
2019-05-11T09:04:08.911Z,11.83
2019-05-11T09:06:37.818Z,13.40
2019-05-11T09:09:08.861Z,12.43
2019-05-11T09:11:38.893Z,11.80
2019-05-11T09:14:08.395Z,12.37
2019-05-11T09:16:38.318Z,11.60
2019-05-11T09:19:08.762Z,12.60
2019-05-11T09:21:38.312Z,14.00
2019-05-11T09:24:08.452Z,13.27
2019-05-11T09:26:38.850Z,14.23
2019-05-11T09:29:08.688Z,14.33
2019-05-11T09:31:38.148Z,15.20
2019-05-11T09:34:09.022Z,16.37
2019-05-11T09:36:38.954Z,14.87
2019-05-11T09:39:08.623Z,16.37
2019-05-11T09:41:38.347Z,17.83
2019-05-11T09:44:09.036Z,15.57
2019-05-11T09:46:38.461Z,15.10
2019-05-11T09:49:08.005Z,15.10
2019-05-11T09:51:37.996Z,16.63
2019-05-11T09:54:07.863Z,16.70
2019-05-11T09:56:38.240Z,16.27
2019-05-11T09:59:08.818Z,17.53
2019-05-11T10:01:37.819Z,19.20
2019-05-11T10:04:08.796Z,19.60
2019-05-11T10:06:38.872Z,23.83
2019-05-11T10:09:08.323Z,22.90
2019-05-11T10:11:36.865Z,27.60
2019-05-11T10:14:05.459Z,24.93
2019-05-11T10:16:33.914Z,26.07
2019-05-11T10:19:02.329Z,26.77
2019-05-11T10:21:30.809Z,27.27
2019-05-11T10:23:59.320Z,28.83
2019-05-11T10:26:28.008Z,33.30
2019-05-11T10:28:58.525Z,33.37
2019-05-11T10:31:28.568Z,38.33
2019-05-11T10:33:58.048Z,33.07
2019-05-11T10:36:27.970Z,34.60
2019-05-11T10:38:58.643Z,33.40
2019-05-11T10:41:28.474Z,37.10
2019-05-11T10:43:58.080Z,40.20
2019-05-11T10:46:28.746Z,39.20
2019-05-11T10:48:58.754Z,41.50
2019-05-11T10:51:28.833Z,42.13
2019-05-11T10:53:57.808Z,42.80
2019-05-11T10:56:28.432Z,45.33
2019-05-11T10:58:58.650Z,45.83
2019-05-11T11:01:28.583Z,45.83
2019-05-11T11:03:58.691Z,47.60
2019-05-11T11:06:28.177Z,47.00
2019-05-11T11:08:57.921Z,42.33
2019-05-11T11:11:27.795Z,45.30
2019-05-11T11:13:58.310Z,44.20
2019-05-11T11:16:36.950Z,41.03
2019-05-11T11:18:58.816Z,41.57
2019-05-11T11:21:27.877Z,44.13
2019-05-11T11:23:58.575Z,36.50
2019-05-11T11:26:28.552Z,40.23
2019-05-11T11:28:58.068Z,37.47
2019-05-11T11:31:28.739Z,33.97
2019-05-11T11:33:58.505Z,35.60
2019-05-11T11:36:28.342Z,36.13
2019-05-11T11:38:58.368Z,35.80
2019-05-11T11:41:27.156Z,35.33
2019-05-11T11:43:58.615Z,35.43
2019-05-11T11:46:27.792Z,30.60
2019-05-11T11:48:58.127Z,33.50
2019-05-11T11:51:28.572Z,31.37
2019-05-11T11:53:58.382Z,34.00
2019-05-11T11:56:28.376Z,32.77
2019-05-11T11:58:57.943Z,30.37
2019-05-11T12:01:28.054Z,31.53
2019-05-11T12:03:58.069Z,32.50
2019-05-11T12:06:27.977Z,30.57
2019-05-11T12:08:58.508Z,29.60
2019-05-11T12:11:28.661Z,31.43
2019-05-11T12:14:01.012Z,30.13
2019-05-11T12:19:08.607Z,31.67
2019-05-11T12:21:41.895Z,31.20
2019-05-11T12:24:08.249Z,30.07
2019-05-11T12:26:38.993Z,28.00
2019-05-11T12:29:11.893Z,26.53
2019-05-11T12:31:44.554Z,25.00
2019-05-11T12:34:13.049Z,26.53
2019-05-11T12:36:41.653Z,24.03
2019-05-11T12:39:10.165Z,23.23
2019-05-11T12:41:38.905Z,22.10
2019-05-11T12:44:08.253Z,22.90
2019-05-11T12:46:39.374Z,20.43
2019-05-11T12:49:07.988Z,17.93
2019-05-11T12:51:38.292Z,16.20
2019-05-11T12:54:08.288Z,15.53
2019-05-11T12:56:38.289Z,15.60
2019-05-11T12:59:08.612Z,16.00
2019-05-11T13:01:38.152Z,14.50
2019-05-11T13:04:08.847Z,17.70
2019-05-11T13:06:38.532Z,19.13
2019-05-11T13:09:08.260Z,20.37
2019-05-11T13:11:37.984Z,20.40
2019-05-11T13:14:08.045Z,19.50
2019-05-11T13:16:37.814Z,20.47
2019-05-11T13:19:08.382Z,17.97
2019-05-11T13:21:38.268Z,16.30
2019-05-11T13:24:08.482Z,15.67
2019-05-11T13:26:38.004Z,14.70
2019-05-11T13:29:07.718Z,15.17
2019-05-11T13:31:38.419Z,15.07
2019-05-11T13:34:08.418Z,13.47
2019-05-11T13:36:38.230Z,12.50
2019-05-11T13:39:08.842Z,12.50
2019-05-11T13:41:38.400Z,12.40
2019-05-11T13:44:08.052Z,14.13
2019-05-11T13:46:38.697Z,11.90
2019-05-11T13:49:08.548Z,12.20
2019-05-11T13:51:38.769Z,11.07
2019-05-11T13:54:07.947Z,10.73
2019-05-11T13:56:37.929Z,13.17
2019-05-11T13:59:07.660Z,13.20
2019-05-11T14:01:38.109Z,12.87
2019-05-11T14:04:08.527Z,11.67
2019-05-11T14:06:37.872Z,11.43
2019-05-11T14:09:07.974Z,11.30
2019-05-11T14:11:38.745Z,12.73
2019-05-11T14:14:07.775Z,12.23
2019-05-11T14:16:37.864Z,11.90
2019-05-11T14:19:08.660Z,14.20
2019-05-11T14:21:38.526Z,12.90
2019-05-11T14:24:07.794Z,13.63
2019-05-11T14:26:38.400Z,13.37
2019-05-11T14:29:08.509Z,11.77
2019-05-11T14:31:38.708Z,13.80
2019-05-11T14:34:08.782Z,12.10
2019-05-11T14:36:38.740Z,12.93
2019-05-11T14:39:09.306Z,13.50
2019-05-11T14:41:38.318Z,12.30
2019-05-11T14:44:08.950Z,12.83
2019-05-11T14:46:38.463Z,10.10
2019-05-11T14:49:08.006Z,10.57
2019-05-11T14:51:38.795Z,10.73
2019-05-11T14:54:08.164Z,9.60
2019-05-11T14:56:38.130Z,17.30
2019-05-11T14:59:09.012Z,8.30
2019-05-11T15:01:38.200Z,9.97
2019-05-11T15:04:09.123Z,9.17
2019-05-11T15:06:38.597Z,9.40
2019-05-11T15:09:08.203Z,8.70
2019-05-11T15:11:38.588Z,8.77
2019-05-11T15:14:08.108Z,6.60
2019-05-11T15:16:38.374Z,8.83
2019-05-11T15:19:08.091Z,8.30
2019-05-11T15:21:38.508Z,7.97
2019-05-11T15:24:09.007Z,8.67
2019-05-11T15:26:38.089Z,7.07
2019-05-11T15:29:08.125Z,7.50
2019-05-11T15:31:38.095Z,6.93
2019-05-11T15:34:08.589Z,6.90
2019-05-11T15:36:38.610Z,7.87
2019-05-11T15:39:09.205Z,7.70
2019-05-11T15:41:38.881Z,6.33
2019-05-11T15:44:11.478Z,7.50
2019-05-11T15:46:38.903Z,7.20
2019-05-11T15:49:08.881Z,6.73
2019-05-11T15:51:40.928Z,6.80
2019-05-11T15:54:08.078Z,8.23
2019-05-11T15:56:38.482Z,8.80
2019-05-11T15:59:08.737Z,9.13
2019-05-11T16:01:38.268Z,6.97
2019-05-11T16:04:09.074Z,8.17
2019-05-11T16:06:37.320Z,7.47
2019-05-11T16:09:08.367Z,6.87
2019-05-11T16:11:38.746Z,7.30
2019-05-11T16:14:08.761Z,6.30
2019-05-11T16:16:39.028Z,6.50
2019-05-11T16:19:13.931Z,6.73
2019-05-11T16:21:38.510Z,6.07
2019-05-11T16:24:07.942Z,6.37
2019-05-11T16:26:36.840Z,11.60
2019-05-11T16:29:05.318Z,8.20
2019-05-11T16:31:33.753Z,10.20
2019-05-11T16:34:02.742Z,11.90
2019-05-11T16:36:31.537Z,10.80
2019-05-11T16:38:59.977Z,9.60
2019-05-11T16:41:29.131Z,10.83
2019-05-11T16:43:58.633Z,11.50
2019-05-11T16:46:28.397Z,12.20
2019-05-11T16:48:57.876Z,11.10
2019-05-11T16:51:28.390Z,11.60
2019-05-11T16:53:58.688Z,10.67
2019-05-11T16:56:26.900Z,9.53
2019-05-11T16:58:55.333Z,12.37
2019-05-11T17:01:23.799Z,14.40
2019-05-11T17:03:52.238Z,10.83
2019-05-11T17:06:20.679Z,11.40
2019-05-11T17:08:49.126Z,11.93
2019-05-11T17:11:18.642Z,11.70
2019-05-11T17:13:48.378Z,12.73
2019-05-11T17:16:17.948Z,12.27
2019-05-11T17:18:48.278Z,14.47
2019-05-11T17:21:18.266Z,12.70
2019-05-11T17:23:48.839Z,12.70
2019-05-11T17:26:19.013Z,13.30
2019-05-11T17:28:48.968Z,14.03
2019-05-11T17:31:18.821Z,13.63
2019-05-11T17:33:47.747Z,12.10
2019-05-11T17:36:18.720Z,11.40
2019-05-11T17:38:47.944Z,13.10
2019-05-11T17:41:16.630Z,9.93
2019-05-11T17:43:45.041Z,9.73
2019-05-11T17:46:13.472Z,10.73
2019-05-11T17:48:41.976Z,9.70
2019-05-11T17:51:21.220Z,9.13
2019-05-11T17:53:40.778Z,10.47
2019-05-11T17:56:09.258Z,9.60
2019-05-11T17:58:38.026Z,8.70
2019-05-11T18:01:09.213Z,9.27
2019-05-11T18:03:38.510Z,11.10
2019-05-11T18:06:08.498Z,11.10
2019-05-11T18:08:37.222Z,10.37
2019-05-11T18:11:10.755Z,11.30
2019-05-11T18:13:39.246Z,11.10
2019-05-11T18:16:08.538Z,10.77
2019-05-11T18:18:37.990Z,12.27
2019-05-11T18:21:08.514Z,12.57
2019-05-11T18:23:38.715Z,12.80
2019-05-11T18:26:08.790Z,14.10
2019-05-11T18:28:37.905Z,13.80
2019-05-11T18:31:06.564Z,12.37
2019-05-11T18:33:35.033Z,12.20
2019-05-11T18:36:03.490Z,12.80
2019-05-11T18:38:32.013Z,10.90
2019-05-11T18:41:00.523Z,11.10
2019-05-11T18:43:28.974Z,12.33
2019-05-11T18:45:58.086Z,12.20
2019-05-11T18:48:30.004Z,11.90
2019-05-11T18:50:59.163Z,12.20
2019-05-11T18:53:28.774Z,11.73
2019-05-11T18:55:59.042Z,11.77
2019-05-11T18:58:27.955Z,12.27
2019-05-11T19:00:56.543Z,12.20
2019-05-11T19:03:24.984Z,12.27
2019-05-11T19:05:53.510Z,11.20
2019-05-11T19:08:21.988Z,10.87
2019-05-11T19:10:50.463Z,9.00
2019-05-11T19:13:18.869Z,8.90
2019-05-11T19:15:48.713Z,6.60
2019-05-11T19:18:17.437Z,7.00
2019-05-11T19:20:49.134Z,6.90
2019-05-11T19:23:18.580Z,6.23
2019-05-11T19:25:48.097Z,6.40
2019-05-11T19:28:18.666Z,5.60
2019-05-11T19:30:48.789Z,6.43
2019-05-11T19:33:18.978Z,6.10
2019-05-11T19:35:48.149Z,5.90
2019-05-11T19:38:18.758Z,5.13
2019-05-11T19:40:48.419Z,4.67
2019-05-11T19:43:18.605Z,3.60
2019-05-11T19:45:48.702Z,4.43
2019-05-11T19:48:17.395Z,4.37
2019-05-11T19:51:02.762Z,4.70
2019-05-11T19:53:16.116Z,3.90
2019-05-11T19:55:44.664Z,4.00
2019-05-11T19:58:13.087Z,4.90
2019-05-11T20:00:41.560Z,3.97
2019-05-11T20:03:10.116Z,3.70
2019-05-11T20:05:38.700Z,3.77
2019-05-11T20:08:07.905Z,4.93
2019-05-11T20:10:38.358Z,4.43
2019-05-11T20:13:07.957Z,4.97
2019-05-11T20:15:38.122Z,4.73
2019-05-11T20:18:07.996Z,5.10
2019-05-11T20:20:37.618Z,4.33
2019-05-11T20:23:07.821Z,4.07
2019-05-11T20:25:38.011Z,4.93
2019-05-11T20:28:06.672Z,5.20
2019-05-11T20:30:35.152Z,4.83
2019-05-11T20:33:03.731Z,5.10
2019-05-11T20:35:32.666Z,3.83
2019-05-11T20:38:01.265Z,5.17
2019-05-11T20:40:29.736Z,6.70
2019-05-11T20:42:58.689Z,4.60
2019-05-11T20:45:28.584Z,5.00
2019-05-11T20:47:57.250Z,4.90
2019-05-11T20:50:25.727Z,4.20
2019-05-11T20:52:54.277Z,5.13
2019-05-11T20:55:22.734Z,4.93
2019-05-11T20:57:51.278Z,5.40
2019-05-11T21:00:19.937Z,4.20
2019-05-11T21:02:49.049Z,5.70
2019-05-11T21:05:18.557Z,4.70
2019-05-11T21:07:47.304Z,5.40
2019-05-11T21:10:16.407Z,6.20
2019-05-11T21:12:44.942Z,4.77
2019-05-11T21:15:14.801Z,6.00
2019-05-11T21:17:44.070Z,4.60
2019-05-11T21:20:12.723Z,4.87
2019-05-11T21:22:41.236Z,5.53
2019-05-11T21:25:10.759Z,4.73
2019-05-11T21:27:39.212Z,4.60
2019-05-11T21:30:09.518Z,4.90
2019-05-11T21:32:39.531Z,4.97
2019-05-11T21:35:09.002Z,4.80
2019-05-11T21:37:38.703Z,4.80
2019-05-11T21:40:08.921Z,4.40
2019-05-11T21:42:39.036Z,4.67
2019-05-11T21:45:09.683Z,5.10
2019-05-11T21:47:39.764Z,8.87
2019-05-11T21:50:09.944Z,6.73
2019-05-11T21:52:38.890Z,4.23
2019-05-11T21:55:09.502Z,5.40
2019-05-11T21:57:38.389Z,4.10
2019-05-11T22:00:09.223Z,4.13
2019-05-11T22:02:39.539Z,4.20
2019-05-11T22:05:09.644Z,4.07
2019-05-11T22:07:38.937Z,3.90
2019-05-11T22:10:09.315Z,4.23
2019-05-11T22:12:39.049Z,4.33
2019-05-11T22:15:09.616Z,4.30
2019-05-11T22:17:39.653Z,3.90
2019-05-11T22:20:09.499Z,4.10
2019-05-11T22:22:38.911Z,4.30
2019-05-11T22:25:08.974Z,4.73
2019-05-11T22:27:38.774Z,4.90
2019-05-11T22:30:08.712Z,4.40
2019-05-11T22:32:38.486Z,3.87
2019-05-11T22:35:08.509Z,3.50
2019-05-11T22:37:38.622Z,4.00
2019-05-11T22:40:08.666Z,5.00
2019-05-11T22:42:38.211Z,5.17
2019-05-11T22:45:08.590Z,4.07
2019-05-11T22:47:39.233Z,3.83
2019-05-11T22:50:10.254Z,4.40
2019-05-11T22:52:43.779Z,4.23
2019-05-11T22:55:12.419Z,12.63
2019-05-11T22:57:41.302Z,5.20
2019-05-11T23:00:10.979Z,5.23
2019-05-11T23:02:40.505Z,3.90
2019-05-11T23:05:09.692Z,3.37
2019-05-11T23:07:41.535Z,4.00
2019-05-11T23:10:10.272Z,5.07
2019-05-11T23:12:38.929Z,4.67
2019-05-11T23:15:09.942Z,3.80
2019-05-11T23:17:38.785Z,3.90
2019-05-11T23:20:08.212Z,4.00
2019-05-11T23:22:53.160Z,4.90
2019-05-11T23:25:08.473Z,5.17
2019-05-11T23:27:39.089Z,4.37
2019-05-11T23:30:08.779Z,4.30
2019-05-11T23:32:37.620Z,4.50
2019-05-11T23:35:09.526Z,4.57
2019-05-11T23:37:38.750Z,3.67
2019-05-11T23:40:09.632Z,4.40
2019-05-11T23:42:38.237Z,4.20
2019-05-11T23:45:08.536Z,5.27
2019-05-11T23:47:39.284Z,5.50
2019-05-11T23:50:09.188Z,4.67
2019-05-11T23:52:38.228Z,5.23
2019-05-11T23:55:13.211Z,4.57
2019-05-11T23:57:41.693Z,6.13
